createdAt,value
2018-01-27T00:01:47.795Z,25.87
2018-01-27T00:04:37.798Z,30.70
2018-01-27T00:07:11.231Z,29.17
2018-01-27T00:09:40.323Z,27.53
2018-01-27T00:12:08.447Z,25.63
2018-01-27T00:14:36.564Z,23.33
2018-01-27T00:17:04.669Z,30.33
2018-01-27T00:19:32.781Z,26.30
2018-01-27T00:22:00.886Z,25.90
2018-01-27T00:24:45.731Z,28.97
2018-01-27T00:27:13.833Z,29.23
2018-01-27T00:29:41.943Z,26.90
2018-01-27T00:32:16.323Z,29.10
2018-01-27T00:34:44.493Z,28.27
2018-01-27T00:37:12.567Z,25.90
2018-01-27T00:39:40.666Z,26.57
2018-01-27T00:42:08.769Z,28.60
2018-01-27T00:44:36.983Z,26.23
2018-01-27T00:47:05.082Z,29.00
2018-01-27T00:49:33.186Z,28.93
2018-01-27T00:52:01.293Z,27.93
2018-01-27T00:54:29.405Z,31.77
2018-01-27T00:56:57.524Z,30.93
2018-01-27T00:59:25.660Z,29.03
2018-01-27T01:01:53.775Z,24.67
2018-01-27T01:04:21.897Z,28.40
2018-01-27T01:06:53.598Z,27.73
2018-01-27T01:09:21.710Z,26.13
2018-01-27T01:11:50.287Z,25.70
2018-01-27T01:14:18.383Z,30.80
2018-01-27T01:16:46.482Z,27.63
2018-01-27T01:19:14.600Z,25.37
2018-01-27T01:21:42.706Z,26.93
2018-01-27T01:24:10.814Z,23.97
2018-01-27T01:26:38.914Z,27.43
2018-01-27T01:29:07.035Z,27.50
2018-01-27T01:31:35.134Z,28.07
2018-01-27T01:34:03.249Z,28.40
2018-01-27T01:36:31.375Z,30.87
2018-01-27T01:38:59.481Z,27.93
2018-01-27T01:41:27.585Z,36.47
2018-01-27T01:44:01.306Z,30.00
2018-01-27T01:46:29.406Z,29.40
2018-01-27T01:49:09.492Z,27.73
2018-01-27T01:51:37.593Z,27.23
2018-01-27T01:54:05.698Z,30.63
2018-01-27T01:56:33.802Z,31.73
2018-01-27T01:59:01.920Z,25.03
2018-01-27T02:01:30.036Z,28.37
2018-01-27T02:03:58.133Z,27.33
2018-01-27T02:06:26.226Z,30.20
2018-01-27T02:08:54.346Z,31.17
2018-01-27T02:11:22.442Z,24.47
2018-01-27T02:13:50.572Z,28.03
2018-01-27T02:16:18.662Z,28.80
2018-01-27T02:18:46.776Z,29.03
2018-01-27T02:21:14.877Z,35.23
2018-01-27T02:23:42.978Z,30.87
2018-01-27T02:26:11.093Z,27.03
2018-01-27T02:28:39.219Z,26.50
2018-01-27T02:31:07.313Z,28.23
2018-01-27T02:33:35.426Z,27.00
2018-01-27T02:36:03.522Z,27.50
2018-01-27T02:38:31.644Z,27.13
2018-01-27T02:40:59.735Z,28.20
2018-01-27T02:43:27.851Z,26.33
2018-01-27T02:45:55.970Z,28.03
2018-01-27T02:48:24.130Z,27.13
2018-01-27T02:50:52.182Z,30.27
2018-01-27T02:53:20.285Z,28.67
2018-01-27T02:55:48.386Z,26.10
2018-01-27T02:58:16.508Z,27.37
2018-01-27T03:00:44.598Z,28.63
2018-01-27T03:03:12.705Z,33.33
2018-01-27T03:05:40.838Z,27.40
2018-01-27T03:08:08.930Z,28.20
2018-01-27T03:10:37.059Z,33.30
2018-01-27T03:13:05.162Z,32.43
2018-01-27T03:15:33.261Z,29.30
2018-01-27T03:18:01.364Z,32.57
2018-01-27T03:20:29.465Z,25.40
2018-01-27T03:22:57.587Z,29.40
2018-01-27T03:25:25.695Z,31.10
2018-01-27T03:27:53.816Z,33.93
2018-01-27T03:30:21.906Z,29.20
2018-01-27T03:32:50.029Z,29.53
2018-01-27T03:35:18.128Z,29.03
2018-01-27T03:37:46.240Z,39.90
2018-01-27T03:40:14.340Z,33.10
2018-01-27T03:42:42.434Z,29.37
2018-01-27T03:45:10.609Z,30.83
2018-01-27T03:47:38.723Z,29.60
2018-01-27T03:50:06.825Z,29.77
2018-01-27T03:52:34.925Z,33.70
2018-01-27T03:55:03.022Z,31.00
2018-01-27T03:57:31.131Z,32.97
2018-01-27T03:59:59.230Z,32.17
2018-01-27T04:02:27.353Z,34.73
2018-01-27T04:04:55.454Z,30.20
2018-01-27T04:07:23.557Z,37.70
2018-01-27T04:09:51.661Z,32.27
2018-01-27T04:12:19.791Z,34.83
2018-01-27T04:14:47.908Z,35.60
2018-01-27T04:17:15.993Z,37.60
2018-01-27T04:19:44.105Z,34.80
2018-01-27T04:22:12.210Z,45.07
2018-01-27T04:24:40.321Z,43.93
2018-01-27T04:27:08.436Z,48.50
2018-01-27T04:29:36.544Z,43.83
2018-01-27T04:32:04.650Z,49.37
2018-01-27T04:34:32.762Z,53.43
2018-01-27T04:37:00.922Z,48.87
2018-01-27T04:39:29.036Z,39.37
2018-01-27T04:41:57.133Z,44.50
2018-01-27T04:44:25.265Z,43.20
2018-01-27T04:46:53.363Z,42.07
2018-01-27T04:49:21.474Z,48.00
2018-01-27T04:51:49.582Z,52.17
2018-01-27T04:54:17.677Z,49.53
2018-01-27T04:56:45.802Z,53.60
2018-01-27T04:59:13.897Z,54.20
2018-01-27T05:01:42.015Z,54.33
2018-01-27T05:04:10.119Z,51.30
2018-01-27T05:06:38.226Z,49.90
2018-01-27T05:09:06.343Z,50.40
2018-01-27T05:11:34.458Z,51.17
2018-01-27T05:14:02.584Z,51.30
2018-01-27T05:16:30.678Z,48.23
2018-01-27T05:18:58.790Z,56.07
2018-01-27T05:21:26.885Z,56.53
2018-01-27T05:23:55.019Z,54.90
2018-01-27T05:26:23.114Z,51.60
2018-01-27T05:28:51.224Z,51.80
2018-01-27T05:31:19.331Z,48.13
2018-01-27T05:36:41.255Z,48.93
2018-01-27T05:39:09.385Z,50.87
2018-01-27T05:41:37.506Z,51.00
2018-01-27T05:44:05.660Z,52.60
2018-01-27T05:46:33.764Z,54.23
2018-01-27T05:49:01.865Z,59.93
2018-01-27T05:51:29.977Z,52.80
2018-01-27T05:53:58.311Z,50.73
2018-01-27T05:56:44.414Z,50.80
2018-01-27T05:59:12.536Z,47.87
2018-01-27T06:01:40.637Z,47.30
2018-01-27T06:04:08.742Z,52.97
2018-01-27T06:06:36.843Z,57.77
2018-01-27T06:09:04.966Z,57.37
2018-01-27T06:11:36.226Z,66.47
2018-01-27T06:16:59.008Z,66.40
2018-01-27T06:19:27.113Z,61.80
2018-01-27T06:22:12.833Z,66.47
2018-01-27T06:24:44.414Z,64.20
2018-01-27T06:27:12.509Z,65.20
2018-01-27T06:29:40.610Z,64.27
2018-01-27T06:32:08.731Z,67.53
2018-01-27T06:34:36.823Z,68.07
2018-01-27T06:37:04.930Z,70.60
2018-01-27T06:39:33.039Z,71.13
2018-01-27T06:42:01.145Z,75.43
2018-01-27T06:44:29.263Z,73.40
2018-01-27T06:46:57.376Z,71.60
2018-01-27T06:49:25.473Z,73.67
2018-01-27T06:51:59.808Z,77.03
2018-01-27T06:54:28.810Z,78.57
2018-01-27T06:56:56.925Z,76.37
2018-01-27T06:59:25.037Z,74.00
2018-01-27T07:01:53.137Z,76.60
2018-01-27T07:04:21.241Z,73.73
2018-01-27T07:06:49.371Z,74.03
2018-01-27T07:09:24.410Z,77.97
2018-01-27T07:12:04.383Z,81.50
2018-01-27T07:14:32.497Z,72.07
2018-01-27T07:17:00.615Z,73.83
2018-01-27T07:19:28.740Z,68.97
2018-01-27T07:22:00.389Z,73.33
2018-01-27T07:24:28.508Z,78.83
2018-01-27T07:26:56.630Z,74.13
2018-01-27T07:29:24.744Z,65.20
2018-01-27T07:31:53.745Z,75.07
2018-01-27T07:34:22.800Z,79.37
2018-01-27T07:36:50.922Z,70.00
2018-01-27T07:39:19.045Z,65.93
2018-01-27T07:41:47.145Z,68.97
2018-01-27T07:44:15.249Z,78.97
2018-01-27T07:46:43.378Z,72.83
2018-01-27T07:49:11.469Z,74.67
2018-01-27T07:51:42.884Z,71.57
2018-01-27T07:54:10.977Z,77.00
2018-01-27T07:56:51.921Z,73.57
2018-01-27T07:59:20.039Z,73.03
2018-01-27T08:01:50.114Z,77.40
2018-01-27T08:04:18.236Z,76.13
2018-01-27T08:06:46.334Z,64.77
2018-01-27T08:09:14.467Z,75.10
2018-01-27T08:11:47.226Z,73.07
2018-01-27T08:14:16.308Z,70.73
2018-01-27T08:16:44.411Z,71.93
2018-01-27T08:19:14.245Z,65.27
2018-01-27T08:21:42.345Z,68.67
2018-01-27T08:24:10.451Z,74.30
2018-01-27T08:26:38.584Z,72.37
2018-01-27T08:29:06.677Z,74.60
2018-01-27T08:31:34.795Z,67.23
2018-01-27T08:34:04.892Z,66.20
2018-01-27T08:36:33.018Z,64.53
2018-01-27T08:39:05.031Z,65.30
2018-01-27T08:41:33.130Z,59.07
2018-01-27T08:44:01.253Z,60.70
2018-01-27T08:46:29.350Z,61.70
2018-01-27T08:48:57.452Z,61.40
2018-01-27T08:51:25.553Z,60.20
2018-01-27T08:53:59.398Z,65.97
2018-01-27T08:56:27.511Z,69.73
2018-01-27T08:58:55.640Z,60.97
2018-01-27T09:01:23.746Z,64.37
2018-01-27T09:03:51.854Z,61.83
2018-01-27T09:06:19.958Z,59.93
2018-01-27T09:08:48.369Z,60.80
2018-01-27T09:11:27.619Z,64.43
2018-01-27T09:13:55.734Z,63.80
2018-01-27T09:16:23.841Z,62.17
2018-01-27T09:18:51.969Z,76.40
2018-01-27T09:21:20.084Z,68.93
2018-01-27T09:23:48.200Z,65.77
2018-01-27T09:26:16.305Z,73.23
2018-01-27T09:28:44.407Z,79.03
2018-01-27T09:31:12.548Z,75.93
2018-01-27T09:33:40.638Z,80.73
2018-01-27T09:36:12.083Z,81.67
2018-01-27T09:38:40.186Z,77.00
2018-01-27T09:41:08.320Z,84.93
2018-01-27T09:43:36.456Z,72.57
2018-01-27T09:46:04.553Z,72.73
2018-01-27T09:48:32.683Z,83.37
2018-01-27T09:51:00.817Z,74.00
2018-01-27T09:53:28.917Z,76.90
2018-01-27T09:56:04.253Z,70.80
2018-01-27T09:58:32.384Z,77.67
2018-01-27T10:01:00.477Z,72.97
2018-01-27T10:03:28.586Z,77.20
2018-01-27T10:06:01.108Z,76.80
2018-01-27T10:08:34.075Z,78.00
2018-01-27T10:11:06.063Z,85.00
2018-01-27T10:13:48.423Z,80.37
2018-01-27T10:16:16.560Z,70.87
2018-01-27T10:18:48.989Z,74.60
2018-01-27T10:21:17.132Z,69.80
2018-01-27T10:23:46.201Z,80.27
2018-01-27T10:26:20.932Z,77.13
2018-01-27T10:28:50.998Z,81.80
2018-01-27T10:31:21.044Z,75.83
2018-01-27T10:33:49.172Z,76.30
2018-01-27T10:36:19.218Z,74.50
2018-01-27T10:38:47.355Z,79.60
2018-01-27T10:41:17.401Z,65.60
2018-01-27T10:43:48.977Z,77.00
2018-01-27T10:46:17.118Z,71.97
2018-01-27T10:48:45.232Z,70.70
2018-01-27T10:51:13.345Z,60.90
2018-01-27T10:53:47.108Z,60.37
2018-01-27T10:56:15.304Z,61.10
2018-01-27T10:58:57.656Z,59.20
2018-01-27T11:01:25.766Z,59.90
2018-01-27T11:03:53.871Z,50.37
2018-01-27T11:06:21.974Z,55.23
2018-01-27T11:08:50.080Z,52.77
2018-01-27T11:11:18.182Z,41.60
2018-01-27T11:13:47.257Z,40.70
2018-01-27T11:16:16.341Z,39.93
2018-01-27T11:18:44.457Z,49.17
2018-01-27T11:21:23.796Z,34.30
2018-01-27T11:23:53.877Z,35.07
2018-01-27T11:26:21.973Z,29.27
2018-01-27T11:28:51.024Z,30.80
2018-01-27T11:31:22.377Z,36.50
2018-01-27T11:33:50.466Z,31.03
2018-01-27T11:36:23.124Z,28.13
2018-01-27T11:38:51.240Z,28.83
2018-01-27T11:41:19.346Z,33.13
2018-01-27T11:43:47.454Z,28.20
2018-01-27T11:46:15.561Z,29.57
2018-01-27T11:48:43.765Z,34.63
2018-01-27T11:51:11.909Z,35.40
2018-01-27T11:53:39.996Z,36.13
2018-01-27T11:56:08.120Z,30.73
2018-01-27T11:58:36.247Z,33.97
2018-01-27T12:01:17.033Z,36.03
2018-01-27T12:03:45.159Z,34.40
2018-01-27T12:06:13.269Z,35.43
2018-01-27T12:08:41.369Z,35.13
2018-01-27T12:11:21.377Z,42.00
2018-01-27T12:17:07.168Z,39.07
2018-01-27T12:19:35.271Z,35.30
2018-01-27T12:22:03.392Z,37.93
2018-01-27T12:24:31.499Z,38.00
2018-01-27T12:27:02.891Z,35.27
2018-01-27T12:29:37.467Z,39.43
2018-01-27T12:32:06.521Z,37.27
2018-01-27T12:34:34.619Z,38.00
2018-01-27T12:37:06.552Z,39.20
2018-01-27T12:39:34.650Z,37.47
2018-01-27T12:42:20.878Z,34.80
2018-01-27T12:44:49.145Z,33.77
2018-01-27T12:47:30.046Z,27.97
2018-01-27T12:49:58.172Z,27.23
2018-01-27T12:52:26.288Z,30.43
2018-01-27T12:54:54.431Z,30.83
2018-01-27T12:57:25.826Z,31.47
2018-01-27T13:00:06.176Z,29.53
2018-01-27T13:02:34.296Z,22.07
2018-01-27T13:05:03.429Z,23.43
2018-01-27T13:07:48.486Z,26.07
2018-01-27T13:10:18.547Z,23.17
2018-01-27T13:12:49.688Z,25.20
2018-01-27T13:15:17.804Z,23.77
2018-01-27T13:17:45.914Z,22.73
2018-01-27T13:20:18.022Z,25.20
2018-01-27T13:22:46.229Z,27.23
2018-01-27T13:25:37.797Z,23.43
2018-01-27T13:28:12.632Z,27.30
2018-01-27T13:30:40.758Z,28.97
2018-01-27T13:33:08.877Z,25.93
2018-01-27T13:35:36.997Z,25.93
2018-01-27T13:38:05.132Z,25.93
2018-01-27T13:40:33.223Z,29.37
2018-01-27T13:43:01.363Z,28.60
2018-01-27T13:45:29.470Z,25.77
2018-01-27T13:48:01.805Z,27.07
2018-01-27T13:50:29.945Z,25.50
2018-01-27T13:52:58.058Z,26.83
2018-01-27T13:55:26.161Z,27.83
2018-01-27T13:57:54.280Z,28.37
2018-01-27T14:00:22.398Z,28.00
2018-01-27T14:02:50.516Z,25.47
2018-01-27T14:05:18.633Z,30.77
2018-01-27T14:07:46.747Z,31.47
2018-01-27T14:10:16.768Z,29.50
2018-01-27T14:12:44.865Z,26.70
2018-01-27T14:15:12.997Z,33.50
2018-01-27T14:17:41.115Z,27.10
2018-01-27T14:20:09.223Z,25.43
2018-01-27T14:22:37.367Z,30.73
2018-01-27T14:25:05.483Z,27.13
2018-01-27T14:27:33.592Z,27.43
2018-01-27T14:30:01.722Z,26.67
2018-01-27T14:32:31.724Z,27.00
2018-01-27T14:35:00.761Z,28.63
2018-01-27T14:37:28.883Z,27.27
2018-01-27T14:39:56.992Z,27.10
2018-01-27T14:42:35.826Z,29.53
2018-01-27T14:45:03.938Z,28.53
2018-01-27T14:47:32.163Z,26.97
2018-01-27T14:50:02.215Z,26.67
2018-01-27T14:52:30.336Z,26.53
2018-01-27T14:54:59.402Z,26.47
2018-01-27T14:57:27.516Z,23.53
2018-01-27T14:59:55.625Z,24.27
2018-01-27T15:02:23.730Z,26.57
2018-01-27T15:04:51.852Z,26.17
2018-01-27T15:07:20.986Z,27.80
2018-01-27T15:09:49.124Z,22.80
2018-01-27T15:12:17.243Z,23.73
2018-01-27T15:14:45.344Z,29.60
2018-01-27T15:17:18.094Z,24.03
2018-01-27T15:19:48.101Z,22.97
2018-01-27T15:22:16.258Z,24.87
2018-01-27T15:24:44.351Z,30.57
2018-01-27T15:27:12.477Z,27.07
2018-01-27T15:29:40.591Z,23.67
2018-01-27T15:32:09.075Z,21.20
2018-01-27T15:34:37.190Z,23.27
2018-01-27T15:37:06.236Z,24.00
2018-01-27T15:39:40.333Z,23.33
2018-01-27T15:42:08.568Z,24.27
2018-01-27T15:44:36.876Z,21.20
2018-01-27T15:47:05.012Z,21.50
2018-01-27T15:49:34.035Z,21.10
2018-01-27T15:52:15.600Z,23.03
2018-01-27T15:54:45.593Z,21.77
2018-01-27T15:57:20.780Z,19.43
2018-01-27T15:59:48.887Z,21.40
2018-01-27T16:02:16.989Z,18.87
2018-01-27T16:04:50.022Z,19.17
2018-01-27T16:07:19.042Z,17.77
2018-01-27T16:09:48.051Z,17.67
2018-01-27T16:12:16.146Z,18.87
2018-01-27T16:14:47.561Z,17.57
2018-01-27T16:17:15.660Z,17.13
2018-01-27T16:19:43.768Z,17.53
2018-01-27T16:22:12.905Z,17.50
2018-01-27T16:24:41.006Z,15.03
2018-01-27T16:27:09.106Z,16.33
2018-01-27T16:29:37.479Z,16.67
2018-01-27T16:32:05.588Z,14.63
2018-01-27T16:34:33.730Z,16.87
2018-01-27T16:37:01.833Z,16.73
2018-01-27T16:39:29.955Z,18.07
2018-01-27T16:41:58.094Z,20.87
2018-01-27T16:44:26.271Z,18.77
2018-01-27T16:46:54.513Z,16.63
2018-01-27T16:49:22.666Z,16.73
2018-01-27T16:51:50.775Z,13.57
2018-01-27T16:54:18.885Z,17.87
2018-01-27T16:56:46.982Z,18.80
2018-01-27T16:59:15.092Z,15.90
2018-01-27T17:01:49.028Z,16.30
2018-01-27T17:04:17.137Z,16.10
2018-01-27T17:06:45.253Z,16.03
2018-01-27T17:09:13.345Z,15.53
2018-01-27T17:11:41.449Z,15.77
2018-01-27T17:14:09.571Z,16.20
2018-01-27T17:16:37.671Z,16.57
2018-01-27T17:19:05.780Z,14.53
2018-01-27T17:21:34.785Z,13.40
2018-01-27T17:24:02.902Z,12.23
2018-01-27T17:26:34.120Z,15.90
2018-01-27T17:29:02.225Z,16.83
2018-01-27T17:31:30.326Z,11.40
2018-01-27T17:34:03.265Z,14.03
2018-01-27T17:36:31.366Z,16.07
2018-01-27T17:38:59.454Z,12.93
2018-01-27T17:41:31.054Z,15.43
2018-01-27T17:43:59.176Z,13.63
2018-01-27T17:46:28.184Z,13.90
2018-01-27T17:48:58.204Z,15.50
2018-01-27T17:51:26.310Z,14.57
2018-01-27T17:53:54.405Z,16.20
2018-01-27T17:56:22.542Z,14.20
2018-01-27T17:58:54.423Z,14.60
2018-01-27T18:01:22.513Z,17.53
2018-01-27T18:03:50.625Z,18.13
2018-01-27T18:06:24.998Z,16.43
2018-01-27T18:08:53.124Z,13.83
2018-01-27T18:11:21.213Z,14.27
2018-01-27T18:13:49.329Z,17.93
2018-01-27T18:16:19.334Z,15.13
2018-01-27T18:18:47.444Z,24.20
2018-01-27T18:21:21.371Z,11.73
2018-01-27T18:23:54.275Z,12.17
2018-01-27T18:26:41.381Z,14.23
2018-01-27T18:29:16.695Z,10.83
2018-01-27T18:31:47.888Z,12.63
2018-01-27T18:34:15.996Z,13.03
2018-01-27T18:36:51.469Z,12.97
2018-01-27T18:39:20.483Z,15.27
2018-01-27T18:41:48.608Z,15.80
2018-01-27T18:44:27.979Z,15.50
2018-01-27T18:46:59.055Z,14.30
2018-01-27T18:49:28.133Z,13.20
2018-01-27T18:51:56.248Z,13.87
2018-01-27T18:54:24.379Z,13.73
2018-01-27T18:56:52.502Z,12.97
2018-01-27T18:59:30.836Z,17.07
2018-01-27T19:01:58.931Z,12.90
2018-01-27T19:04:27.044Z,13.03
2018-01-27T19:06:55.173Z,11.13
2018-01-27T19:09:23.261Z,13.37
2018-01-27T19:11:51.369Z,13.60
2018-01-27T19:14:36.282Z,10.03
2018-01-27T19:17:06.336Z,11.33
2018-01-27T19:19:35.397Z,12.80
2018-01-27T19:22:03.508Z,11.13
2018-01-27T19:27:51.909Z,11.00
2018-01-27T19:30:35.494Z,10.97
2018-01-27T19:33:18.474Z,11.07
2018-01-27T19:35:54.920Z,12.83
2018-01-27T19:38:24.135Z,11.10
2018-01-27T19:40:52.672Z,14.60
2018-01-27T19:43:21.188Z,14.40
2018-01-27T19:45:51.907Z,12.47
2018-01-27T19:48:21.456Z,11.63
2018-01-27T19:50:51.868Z,11.33
2018-01-27T19:53:21.294Z,13.83
2018-01-27T19:55:58.464Z,11.60
2018-01-27T19:58:28.172Z,14.27
2018-01-27T20:01:04.158Z,12.70
2018-01-27T20:03:33.147Z,13.13
2018-01-27T20:06:01.503Z,9.73
2018-01-27T20:08:40.840Z,10.70
2018-01-27T20:11:25.029Z,10.40
2018-01-27T20:13:58.640Z,12.20
2018-01-27T20:16:26.793Z,11.07
2018-01-27T20:18:55.047Z,9.43
2018-01-27T20:21:28.308Z,12.33
2018-01-27T20:23:56.511Z,12.27
2018-01-27T20:26:34.988Z,13.17
2018-01-27T20:29:05.186Z,13.50
2018-01-27T20:31:34.588Z,14.83
2018-01-27T20:34:04.982Z,13.10
2018-01-27T20:36:46.980Z,13.37
2018-01-27T20:39:28.679Z,11.10
2018-01-27T20:41:56.925Z,10.93
2018-01-27T20:44:44.107Z,12.60
2018-01-27T20:47:12.383Z,13.13
2018-01-27T20:49:41.547Z,13.23
2018-01-27T20:52:13.443Z,11.37
2018-01-27T20:54:44.794Z,13.77
2018-01-27T20:57:21.303Z,13.47
2018-01-27T20:59:49.560Z,10.70
2018-01-27T21:02:17.795Z,13.33
2018-01-27T21:04:46.055Z,9.73
2018-01-27T21:07:20.694Z,14.70
2018-01-27T21:09:52.206Z,9.43
2018-01-27T21:12:20.473Z,15.30
2018-01-27T21:14:49.673Z,10.07
2018-01-27T21:17:18.078Z,13.23
2018-01-27T21:19:46.430Z,12.67
2018-01-27T21:22:14.663Z,12.80
2018-01-27T21:24:43.029Z,9.57
2018-01-27T21:27:20.921Z,12.40
2018-01-27T21:29:52.843Z,12.03
2018-01-27T21:32:22.057Z,10.37
2018-01-27T21:34:50.269Z,9.70
2018-01-27T21:37:20.553Z,10.27
2018-01-27T21:39:57.872Z,12.07
2018-01-27T21:42:27.219Z,11.20
2018-01-27T21:44:55.423Z,11.60
2018-01-27T21:47:25.545Z,11.83
2018-01-27T21:49:53.741Z,12.50
2018-01-27T21:52:22.930Z,10.70
2018-01-27T21:54:52.128Z,13.23
2018-01-27T21:57:27.073Z,12.80
2018-01-27T21:59:55.356Z,10.20
2018-01-27T22:02:24.581Z,8.93
2018-01-27T22:04:52.915Z,10.77
2018-01-27T22:07:22.981Z,11.70
2018-01-27T22:09:51.212Z,11.20
2018-01-27T22:12:19.420Z,11.77
2018-01-27T22:14:47.704Z,11.00
2018-01-27T22:17:19.737Z,10.40
2018-01-27T22:19:48.068Z,11.33
2018-01-27T22:22:25.572Z,11.03
2018-01-27T22:24:54.868Z,13.40
2018-01-27T22:27:31.761Z,12.23
2018-01-27T22:30:04.197Z,10.33
2018-01-27T22:32:32.551Z,13.07
2018-01-27T22:35:00.723Z,11.73
2018-01-27T22:37:30.063Z,10.07
2018-01-27T22:39:58.408Z,10.83
2018-01-27T22:42:41.888Z,9.53
2018-01-27T22:45:10.194Z,10.50
2018-01-27T22:47:38.398Z,10.23
2018-01-27T22:50:08.734Z,8.63
2018-01-27T22:52:37.528Z,10.93
2018-01-27T22:55:05.729Z,9.97
2018-01-27T22:57:39.596Z,10.80
2018-01-27T23:00:07.896Z,7.67
2018-01-27T23:02:36.144Z,11.10
2018-01-27T23:05:04.512Z,7.43
2018-01-27T23:07:32.748Z,10.57
2018-01-27T23:10:01.040Z,7.77
2018-01-27T23:12:29.261Z,12.47
2018-01-27T23:14:57.553Z,9.47
2018-01-27T23:17:25.963Z,8.50
2018-01-27T23:19:54.168Z,9.13
2018-01-27T23:22:22.426Z,8.40
2018-01-27T23:24:51.499Z,8.63
2018-01-27T23:27:41.743Z,12.03
2018-01-27T23:30:09.965Z,7.47
2018-01-27T23:32:38.315Z,10.50
2018-01-27T23:35:06.539Z,11.07
2018-01-27T23:37:46.508Z,10.83
2018-01-27T23:40:15.685Z,10.97
2018-01-27T23:42:43.972Z,10.40
2018-01-27T23:45:25.257Z,12.70
2018-01-27T23:47:53.553Z,10.23
2018-01-27T23:50:22.167Z,13.57
2018-01-27T23:52:50.595Z,11.80
2018-01-27T23:55:18.842Z,13.47
2018-01-27T23:57:47.141Z,10.83
